Tiempo atmosférico en la estación meteorológica de Alicante/Alacant Aeropuerto, Alacant/Alicante (43 m.)



Fecha
DESCASC
Temp. máxima en grados centígrados (hora)
DESCASC
Temp. mínima en grados centígrados (hora)
DESCASC
Temp. media en grados centígrados
DESCASC
Racha de viento máxima en m/sg (hora)
DESCASC
Velocidad máxima media en intervalos de 10 minutos(hora)
DESCASC
Precipitaciones diarias en mm
DESCASC
Precipitaciones de 00:00 a 06:00 en mm
DESCASC
Precipitaciones de 06:00 a 12:00 en mm
DESCASC
Precipitaciones de 12:00 a 18:00 en mm
DESCASC
Precipitaciones de 18:00 a 24:00 en mm
DESCASC

Gráficas

Temp. máximas Temp. mínimas Temp. medias Precipitaciones Rachas de viento máximas Velocidades máximas media en intervalos de 10 minutos

Datos horarios

Fecha y hora oficial Temperatura (ºC) Velocidad del viento (km/h) Dirección del viento Racha (km/h) Dirección de racha Precipitación (mm) Presión (hPa) Tendencia (hPa) Humedad (%)
2021-03-01 23:00:00 13.3 7 Noroeste 15 Norte 0 1018.9 0.7 70
2021-03-01 22:00:00 13.4 12 Norte 26 Nordeste 0 1018.4 0.6 70
2021-03-01 21:00:00 13.8 17 Nordeste 39 Este 0 1018.3 1.6 71
2021-03-01 20:00:00 14.4 20 Nordeste 32 Nordeste 0 1018.2 1.9 69
2021-03-01 19:00:00 14.4 21 Nordeste 41 Este 0 1017.8 1.5 70
2021-03-01 18:00:00 14.5 31 Nordeste 52 Este 0 1016.7 0.3 75
2021-03-01 17:00:00 15 39 Este 59 Este 0 1016.3 -1 76
2021-03-01 16:00:00 15.6 40 Este 55 Este 0 1016.3 -2 72
2021-03-01 15:00:00 16.7 37 Este 52 Este 0 1016.4 -- 66
2021-03-01 14:00:00 16.9 31 Nordeste 52 Este 0 1017.3 -- 62
2021-03-01 13:00:00 16.2 36 Nordeste 58 Este 0 1018.3 -- 67
2021-03-01 12:00:00 16 40 Este 55 Este 0 1018.4 -- 68
2021-03-01 11:00:00 15 44 Este 55 Este 0 1018.5 -- 72
2021-03-01 10:00:00 14.7 32 Nordeste 45 Este 0 1018.4 -- 71
2021-03-01 09:00:00 14.4 27 Nordeste 45 Nordeste 0 1018.1 -- 64
2021-03-01 08:00:00 13.7 27 Nordeste 45 Nordeste 0 1017.8 -- 70
2021-03-01 07:00:00 13.5 37 Este 52 Este 0 1017.4 -- 70
2021-03-01 06:00:00 13.4 32 Nordeste 52 Nordeste 0 1017.3 -- 73
2021-03-01 05:00:00 13.4 35 Nordeste 52 Nordeste 0 1017.1 -- 74
2021-03-01 04:00:00 13.6 27 Nordeste 42 Nordeste 0 1017.6 -- 71
2021-03-01 03:00:00 13.5 17 Nordeste 30 Nordeste 0 1018.3 -- 68
2021-03-01 02:00:00 13.8 15 Nordeste 39 Nordeste 0 1018.3 -- 66
2021-03-01 01:00:00 13.4 26 Nordeste 48 Este 0 1018.5 -- 76
2021-03-01 00:00:00 13.6 34 Este 46 Este 0 1018.9 -- 76
2021-02-28 23:00:00 13.5 32 Este 45 Este 0 1018.1 -- 83
2021-02-28 22:00:00 14 17 Nordeste 32 Nordeste 0 1018.7 -- 63
2021-02-28 21:00:00 13.5 18 Nordeste 45 Este 0 1018.3 -- 66
2021-02-28 20:00:00 13.3 31 Este 46 Norte 0 1018 -- 79
2021-02-28 19:00:00 13.4 29 Este 42 Este 0 1017.8 -- 78
2021-02-28 18:00:00 14 32 Este 45 Este 0 1017.8 -- 76
2021-02-28 17:00:00 14.5 32 Este 45 Este 0 1017.9 -- 74
2021-02-28 16:00:00 15.1 29 Este 45 Este 0 1018.1 -- 68
2021-02-28 15:00:00 15.7 28 Este 48 Este 0 1018.5 -- 66
2021-02-28 14:00:00 15.7 28 Nordeste 42 Este 0 1019 -- 67
2021-02-28 13:00:00 15.7 30 Este 41 Nordeste 0 1019.7 -- 66
2021-02-28 12:00:00 15.7 32 Este 45 Este 0 1020.1 -- 64
2021-02-28 11:00:00 15.4 26 Nordeste 39 Este 0 1020 -- 66
2021-02-28 10:00:00 14.1 30 Este 42 Este 0 1019.8 -- 67
2021-02-28 09:00:00 13.8 26 Este 35 Este 0 1019.7 -- 75
2021-02-28 08:00:00 12.8 27 Este 39 Este 0 1019.2 -- 75
2021-02-28 07:00:00 12.1 13 Nordeste 28 Nordeste 0 1019 -- 74
2021-02-28 06:00:00 12.1 17 Nordeste 30 Nordeste 0 1018.9 -- 76
2021-02-28 05:00:00 12.9 19 Nordeste 33 Este 0 1018.7 -- 81
2021-02-28 04:00:00 12.2 13 Nordeste 28 Este 0 1019 -- 79
2021-02-28 03:00:00 12.5 13 Norte 22 Norte 0 1019.5 -- 68
2021-02-28 02:00:00 12.1 13 Norte 22 Norte 0 1019.9 -- 72
2021-02-28 01:00:00 11.6 12 Norte 21 Norte 0 1020 -- 77
2021-02-28 00:00:00 11.3 10 Norte 18 Norte 0 1020.2 -- 77
2021-02-27 23:00:00 11.2 12 Norte 17 Norte 0 1020.1 -- 79
2021-02-27 22:00:00 11.2 13 Norte 17 Norte 0 1019.8 -- 85
2021-02-27 21:00:00 11.2 6 Nordeste 18 Este 0 1019.6 -- 85
2021-02-27 20:00:00 11.4 12 Nordeste 17 Este 0 1019.7 -- 82
2021-02-27 19:00:00 12.5 10 Este 21 Este 0 1019.6 -- 77
2021-02-27 18:00:00 13.7 14 Este 21 Este 0 1019.6 -- 72
2021-02-27 17:00:00 14.8 14 Este 26 Este 0 1019.8 -- 63
2021-02-27 16:00:00 15.3 14 Este 26 Este 0 1020.2 -- 56
2021-02-27 15:00:00 15.6 14 Este 26 Este 0 1020.8 -- 54
2021-02-27 14:00:00 15.7 15 Este 24 Sudeste 0 1021.4 -- 53
2021-02-27 13:00:00 15.3 14 Nordeste 28 Nordeste 0 1022.2 -- 55
2021-02-27 12:00:00 14.9 8 Nordeste 21 Nordeste 0 1022.8 -- 55
2021-02-27 11:00:00 14.1 7 Este 15 Este 0 1023.4 -- 60
2021-02-27 10:00:00 12.6 9 Noroeste 17 Noroeste 0 1023.5 -- 64
2021-02-27 09:00:00 10.1 13 Noroeste 22 Noroeste 0 1023.3 -- 71
2021-02-27 08:00:00 8 13 Noroeste 18 Noroeste 0 1022.9 -- 79
2021-02-27 07:00:00 8.1 10 Noroeste 15 Noroeste 0 1022.8 -- 80
2021-02-27 06:00:00 8.7 9 Noroeste 15 Noroeste 0 1022.7 -- 79
2021-02-27 05:00:00 10.1 12 Noroeste 13 Noroeste 0 1022.9 -- 75
2021-02-27 04:00:00 9.8 12 Noroeste 15 Noroeste 0 1023.1 -- 80
2021-02-27 03:00:00 10 7 Norte 13 Nordeste 0 1023.5 -- 83
2021-02-27 02:00:00 11.7 9 Nordeste 30 Nordeste 0 1024 -- 78
2021-02-27 01:00:00 12.6 22 Este 32 Este 0 1024.5 -- 74
2021-02-27 00:00:00 12.8 24 Este 33 Este 0 1024.9 -- 76
2021-02-26 23:00:00 12.9 23 Este 33 Este 0 1025.1 -- 78
2021-02-26 22:00:00 13 24 Este 37 Este 0 1024.8 -- 77
2021-02-26 21:00:00 13.1 25 Este 37 Este 0 1024.4 -- 79
2021-02-26 20:00:00 13.3 23 Este 35 Este 0 1024.4 -- 77
2021-02-26 19:00:00 13.4 23 Nordeste 35 Este 0 1024.3 -- 78
2021-02-26 18:00:00 14.1 24 Este 35 Este 0 1024.3 -- 67
2021-02-26 17:00:00 15 23 Este 35 Este 0 1024.4 -- 64
2021-02-26 16:00:00 14.8 24 Este 39 Este 0 1024.6 -- 72
2021-02-26 15:00:00 15 30 Nordeste 45 Este 0 1024.9 -- 70
2021-02-26 14:00:00 15.3 29 Este 42 Este 0 1025.3 -- 69
2021-02-26 13:00:00 15.5 27 Este 37 Este -- 1026.2 -- 74
2021-02-26 12:00:00 16 24 Este 33 Este -- 1026.7 -- 60
2021-02-26 11:00:00 15.4 18 Nordeste 33 Este 0 1026.8 -- 65
2021-02-26 10:00:00 14.6 12 Nordeste 22 Nordeste 0 1026.6 -- 68
2021-02-26 09:00:00 12.5 6 Norte 17 Norte 0 1026.2 -- 73
2021-02-26 08:00:00 11.2 8 Norte 13 Este 0 1025.6 -- 85
2021-02-26 07:00:00 12.6 10 Nordeste 18 Nordeste 0 1025.3 -- 80
2021-02-26 06:00:00 12.2 9 Norte 13 Norte 0 1025.4 -- 79
2021-02-26 05:00:00 11.1 6 Norte 13 Norte 0 1025.3 -- 83
2021-02-26 04:00:00 11.8 10 Norte 17 Norte 0 1025.4 -- 79
2021-02-26 03:00:00 12.3 11 Norte 17 Norte 0 1025.8 -- 78
2021-02-26 02:00:00 12.3 13 Norte 21 Nordeste 0 1026.3 -- 79
2021-02-26 01:00:00 13.7 14 Nordeste 32 Este 0 1026.4 -- 75
2021-02-26 00:00:00 13.7 21 Este 30 Nordeste 0 1026.6 -- 76
2021-02-25 23:00:00 13.5 19 Este 35 Este 0 1026.6 -- 81
2021-02-25 22:00:00 13.9 23 Este 32 Este 0 1026.4 -- 79
2021-02-25 21:00:00 13.9 22 Este 32 Este 0 1026.2 -- 81
2021-02-25 20:00:00 13.8 21 Este 32 Este 0 1025.8 -- 84
2021-02-25 19:00:00 13.8 19 Este 26 Este 0 1025.4 -- 88
2021-02-25 18:00:00 14.2 16 Nordeste 28 Este 0 1025.2 -- 83
2021-02-25 17:00:00 15 18 Este 30 Este 0 1025.3 -- 78
2021-02-25 16:00:00 15 23 Este 32 Este 0 1025.6 -- 76
2021-02-25 15:00:00 15.4 23 Este 32 Norte 0 1025.9 -- 73
2021-02-25 14:00:00 16.4 23 Este 33 Este 0 1026.4 -- 70
2021-02-25 13:00:00 16.1 21 Este 30 Este 0 1027.1 -- 71
2021-02-25 12:00:00 16 19 Este 33 Este 0 1027.6 -- 73
2021-02-25 11:00:00 16.1 18 Nordeste 26 Este 0 1027.9 -- 70
2021-02-25 10:00:00 14.6 12 Nordeste 17 Nordeste 0 1027.9 -- 77
2021-02-25 09:00:00 13.8 11 Norte 17 Norte 0 1027.4 -- 79
2021-02-25 08:00:00 12.2 10 Norte 15 Norte 0 1026.9 -- 84
2021-02-25 07:00:00 12.2 10 Norte 15 Norte 0 1026.6 -- 83
2021-02-25 06:00:00 11.8 10 Norte 17 Norte 0 1026.7 -- 81
2021-02-25 05:00:00 11.3 10 Norte 15 Norte 0 1026.7 -- 78
2021-02-25 04:00:00 11.7 9 Norte 15 Norte 0 1026.9 -- 76
2021-02-25 03:00:00 10.3 5 Noroeste 8 Norte 0 1027.4 -- 85
2021-02-25 02:00:00 9.7 7 Norte 13 Norte 0 1027.7 -- 82
2021-02-25 01:00:00 9.5 8 Norte 11 Norte 0 1027.9 -- 92
2021-02-25 00:00:00 9.9 7 Norte 13 Norte 0 1028.4 -- 92
2021-02-24 23:00:00 11.4 9 Norte 11 Norte 0 1028.7 -- 94
2021-02-24 22:00:00 11.8 8 Norte 15 Nordeste 0 1028.6 -- 92
2021-02-24 21:00:00 12.3 10 Nordeste 45 Nordeste 0 1028.2 -- 92
2021-02-24 20:00:00 12.7 13 Nordeste 21 Este 0 1027.9 -- 88
2021-02-24 19:00:00 13.6 12 Nordeste 28 Este 0 1028.1 -- 85
2021-02-24 18:00:00 14.6 19 Este 30 Nordeste 0 1027.9 -- 76
2021-02-24 17:00:00 15.6 22 Este 32 Este 0 1028.2 -- 69
2021-02-24 16:00:00 16.1 18 Este 32 Este 0 1028.4 -- 70
2021-02-24 15:00:00 16 22 Este 33 Este 0 1028.6 -- 69
2021-02-24 14:00:00 16.3 22 Nordeste 33 Este 0 1029.2 -- 69
2021-02-24 13:00:00 16.2 21 Este 35 Este 0 1030.2 -- 70
2021-02-24 12:00:00 16.1 27 Este 37 Este 0 1030.9 -- 74
2021-02-24 11:00:00 16.9 14 Este 26 Este 0 1030.9 -- 62
2021-02-24 10:00:00 15.6 6 Este 9 Este 0 1031.1 0.9 62
2021-02-24 09:00:00 13 4 Norte 13 Noroeste 0 1030.9 -- 69
2021-02-24 08:00:00 12.1 10 Noroeste 18 Noroeste 0 1030.7 0.8 72
2021-02-24 07:00:00 10.6 11 Noroeste 15 Noroeste 0 1030.2 -- 75
2021-02-24 06:00:00 11.4 10 Noroeste 13 Noroeste 0 1029.9 -1 72
2021-02-24 05:00:00 12.7 5 Noroeste -- -- 0 1029.9 -- 66
2021-02-24 04:00:00 12.3 -- -- -- -- 0 1030.4 -- 68
2021-02-24 03:00:00 11.8 5 Oeste 8 Norte 0 1030.9 -- 66
2021-02-24 02:00:00 11.3 6 Norte 17 Noroeste 0 1031.1 -0.5 67
2021-02-24 01:00:00 10.1 10 Oeste 15 Noroeste 0 1031.1 -- 82
2021-02-24 00:00:00 10.7 10 Noroeste 11 Noroeste 0 1031.4 -- 85
2021-02-23 23:00:00 10.5 7 Noroeste 9 Noroeste 0 1031.6 -- 86
2021-02-23 22:00:00 12.2 6 Norte 9 Norte 0 1031.6 -- 84
2021-02-23 21:00:00 11.8 9 Oeste 11 Oeste 0 1030.8 1.7 86
2021-02-23 20:00:00 12.8 8 Nordeste 15 Este 0 1030.2 -- 86
2021-02-23 19:00:00 13.6 10 Este 24 Norte 0 1029.6 0.9 81
2021-02-23 18:00:00 14.8 18 Este 28 Este 0 1029.1 -- 76
2021-02-23 17:00:00 15.9 17 Este 22 Este 0 1028.7 -- 68
2021-02-23 16:00:00 16.7 17 Este 24 Este 0 1028.7 -- 63
2021-02-23 15:00:00 15.4 17 Este 35 Norte 0 1028.9 -- 70
2021-02-23 14:00:00 15.7 24 Este 33 Este 0 1029.1 -- 66
2021-02-23 13:00:00 16.7 25 Este 35 Este 0 1029.4 -- 58
2021-02-23 12:00:00 16.7 28 Este 35 Este 0 1029.6 -- 58
2021-02-23 11:00:00 16.2 23 Nordeste 32 Este 0 1029.3 -- 58
2021-02-23 10:00:00 15.4 15 Nordeste 28 Este 0 1028.4 -- 54
2021-02-23 09:00:00 13.5 7 Norte 11 Nordeste 0 1027.4 -- 57
2021-02-23 08:00:00 7.5 2 Norte 11 Noroeste 0 1026.4 -- 83
2021-02-23 07:00:00 10.3 2 Oeste 8 Oeste 0 1025.6 -- 70
2021-02-23 06:00:00 8.5 7 Noroeste 9 Noroeste 0 1024.9 -- 78
2021-02-23 05:00:00 9.8 7 Oeste 11 Noroeste 0 1024.1 -- 74
2021-02-23 04:00:00 8.9 4 Norte 13 Oeste 0 1023.9 -- 76
2021-02-23 03:00:00 7.6 11 Oeste 13 Oeste 0 1023.3 -- 80
2021-02-23 02:00:00 8.2 9 Oeste 11 Oeste 0 1022.7 -- 74
2021-02-23 01:00:00 9.2 9 Oeste 11 Oeste 0 1022.2 -- 71
2021-02-23 00:00:00 10 8 Noroeste 13 Noroeste 0 1021.7 -- 67
2021-02-22 23:00:00 10.7 4 Oeste 18 Oeste 0 1021 -- 64
2021-02-22 22:00:00 11.8 14 Oeste 22 Oeste 0 1020.4 -- 59
2021-02-22 21:00:00 10.8 13 Oeste 17 Oeste 0 1019.7 -- 60
2021-02-22 20:00:00 12.6 12 Oeste 26 Noroeste 0 1018.9 -- 52
2021-02-22 19:00:00 14.6 17 Noroeste 35 Oeste 0 1017.6 -- 44
2021-02-22 18:00:00 15.5 26 Oeste 42 Oeste 0 1016.4 -- 42
2021-02-22 17:00:00 16.2 28 Oeste 45 Noroeste 0 1015.6 -- 38
2021-02-22 16:00:00 16.3 31 Noroeste 46 Noroeste 0 1014.7 -- 38
2021-02-22 15:00:00 17.9 23 Oeste 41 Oeste 0 1013.8 -- 35
2021-02-22 14:00:00 17.4 25 Oeste 39 Oeste 0 1013.6 -- 37
2021-02-22 13:00:00 16.1 20 Oeste 41 Oeste 0 1013.8 -- 39
2021-02-22 12:00:00 16.3 24 Oeste 39 Noroeste 0 1014 -- 39
2021-02-22 11:00:00 15.3 19 Oeste 32 Oeste 0 1013.5 -- 44
2021-02-22 10:00:00 14.9 9 Sudoeste 17 Sudoeste 0 1013 -- 46
2021-02-22 09:00:00 10.5 9 Sudoeste 13 Oeste 0 1012.2 -- 66
2021-02-22 08:00:00 9.6 9 Oeste 15 Oeste 0 1011.3 -- 67
2021-02-22 07:00:00 9 9 Sudoeste 17 Oeste 0 1010.3 2 72
2021-02-22 06:00:00 10 10 Oeste 13 Oeste 0 1009.8 -- 66
2021-02-22 05:00:00 8.8 8 Oeste 11 Oeste 0 1009 -- 78
2021-02-22 04:00:00 10.9 7 Oeste 18 Oeste 0 1008.3 -- 74
2021-02-22 03:00:00 10.4 9 Oeste 13 Sudoeste 0 1007.5 -- 87
2021-02-22 02:00:00 11.7 12 Sudoeste 18 Sudoeste 0 1006.6 -- 80
2021-02-22 01:00:00 11.2 8 Oeste 13 Oeste 0 1006 -- 86
2021-02-22 00:00:00 11.8 10 Oeste 24 Sudoeste 0 1005.1 -- 84
2021-02-21 23:00:00 13.6 18 Sur 30 Sur 0 1004.9 -- 79
2021-02-21 22:00:00 13.9 6 Sur 15 Noroeste 0 1004.5 2.6 86
2021-02-21 21:00:00 14.4 8 Oeste 13 Oeste 0 1003.8 -- 93
2021-02-21 20:00:00 15.1 5 Sur 18 Sur 0 1003.3 -- 83
2021-02-21 19:00:00 16.1 11 Sudeste 24 Este 0 1001.9 -- 68
2021-02-21 18:00:00 17 13 Este 21 Este 0 1000.2 -- 62
2021-02-21 17:00:00 19.1 13 Este 26 Nordeste 0 999.8 -- 51
2021-02-21 16:00:00 18.1 21 Este 30 Este 0 999.9 -- 57
2021-02-21 15:00:00 18.5 19 Este 35 Este 0 1000.2 -- 55
2021-02-21 14:00:00 19.2 24 Este 37 Este 0 1000.5 -- 47
2021-02-21 13:00:00 18.9 16 Este 22 Este 0 1002 -- 52
2021-02-21 12:00:00 18.4 8 Nordeste 15 Este 0 1003.1 -- 52
2021-02-21 11:00:00 15.7 4 Nordeste 13 Este 0 1003.5 -- 61
2021-02-21 10:00:00 14.1 2 Norte 13 Oeste 0 1004 -- 70
2021-02-21 09:00:00 12.1 10 Oeste 17 Nordeste 0 1004.8 -- 73
2021-02-21 08:00:00 12.2 11 Nordeste 17 Nordeste 0 1004 -- 69
2021-02-21 07:00:00 10.7 7 Norte 21 Nordeste 0 1004.7 -- 75
2021-02-21 06:00:00 12.4 9 Nordeste 17 Nordeste 0 1005.1 -- 72
2021-02-21 05:00:00 10.6 0 Calma 9 Nordeste 0 1006.1 -- 75
2021-02-21 04:00:00 10.3 7 Oeste 9 Oeste 0 1006.9 -- 72
2021-02-21 03:00:00 11.6 2 Oeste 11 Norte 0 1007.9 -- 68
2021-02-21 02:00:00 11.1 6 Norte 15 Norte 0 1009.1 -- 79
2021-02-21 01:00:00 10.8 9 Norte 13 Nordeste 0 1010.2 -- 88
2021-02-21 00:00:00 11.9 6 Norte 9 Nordeste 0 1011.4 -- 86
2021-02-20 23:00:00 11.2 6 Norte 11 Norte 0 1011.9 -- 90
2021-02-20 22:00:00 11.5 7 Norte 15 Nordeste 0 1012.3 -- 91
2021-02-20 21:00:00 12.7 14 Nordeste 32 Nordeste 0 1012.3 -- 89
2021-02-20 20:00:00 13.1 20 Nordeste 32 Nordeste 0 1012.6 -- 89
2021-02-20 19:00:00 13.2 18 Nordeste 32 Este 0 1012.7 -- 89
2021-02-20 18:00:00 13.8 23 Este 35 Nordeste 0 1012.4 -- 85
2021-02-20 17:00:00 14.7 23 Este 33 Este 0 1012.7 -- 80
2021-02-20 16:00:00 14.9 22 Este 32 Este 0 1013.3 -- 75
2021-02-20 15:00:00 15.1 20 Este 30 Este 0 1013.8 -- 72
2021-02-20 14:00:00 14.9 17 Este 24 Este 0 1015.2 -- 73
2021-02-20 13:00:00 14.6 13 Este 21 Sudeste 0 1016.2 -- 72
2021-02-20 12:00:00 13.8 12 Nordeste 22 Nordeste 0 1016.6 -- 76
2021-02-20 11:00:00 13.2 14 Norte 21 Norte 0 1016.8 -- 80
2021-02-20 10:00:00 11.6 7 Norte 13 Norte 0 1017 -- 86
2021-02-20 09:00:00 10.3 5 Noroeste 13 Oeste 0 1016.9 1.2 92
2021-02-20 08:00:00 10.3 10 Norte 17 Norte 0 1016 -- 92
2021-02-20 07:00:00 11.2 11 Norte 15 Norte 0 1015.5 -- 92
2021-02-20 06:00:00 11.5 9 Norte 13 Norte 0 1015.7 -0.4 92
2021-02-20 05:00:00 11.6 5 Norte 11 Norte 0 1015.6 -- 92
2021-02-20 04:00:00 11.6 5 Noroeste 13 Norte 0 1016 -0.4 94
2021-02-20 03:00:00 10.6 7 Norte 11 Norte 0 1016.1 -- 100
2021-02-20 02:00:00 8.8 2 Oeste 5 Oeste 0 1016.4 -- 100
2021-02-20 01:00:00 8.4 4 Norte -- -- 0 1016.4 -- 100
2021-02-20 00:00:00 8.7 2 Norte -- -- 0 1016.6 -- 100
2021-02-19 23:00:00 9.3 6 Noroeste -- -- 0 1016.8 0.4 100
2021-02-19 22:00:00 10.9 5 Noroeste 8 Noroeste 0 1016.9 -- 100
2021-02-19 21:00:00 10.4 0 Calma -- -- 0 1016.6 -- 95
2021-02-19 20:00:00 11.7 5 Noroeste 8 Sudoeste 0 1016.4 -- 93
2021-02-19 19:00:00 13.1 3 Sudeste 9 Nordeste 0 1016.1 -- 83
2021-02-19 18:00:00 15.5 8 Este 17 Este 0 1015.9 -- 74
2021-02-19 17:00:00 16.7 12 Este 18 Norte 0 1016.1 -1.1 70
2021-02-19 16:00:00 18.2 13 Este 21 Este 0 1016.2 -- 62
2021-02-19 15:00:00 18.2 14 Este 21 Norte 0 1016.6 -- 63
2021-02-19 14:00:00 18.6 11 Este 18 Este 0 1017.2 -- 59
2021-02-19 13:00:00 17.2 4 Sur 13 Sur 0 1018.1 -- 63
2021-02-19 12:00:00 15.9 4 Noroeste 13 Sur 0 1018.6 -- 71
2021-02-19 11:00:00 13.8 5 Sur 11 Sudoeste 0 1018.8 -- 81
2021-02-19 10:00:00 13 4 Norte 9 Norte 0 1018.6 -- 85
2021-02-19 09:00:00 10.9 8 Norte 11 Norte 0 1018.3 -- 96
2021-02-19 08:00:00 9.7 5 Noroeste 8 Noroeste 0 1017.7 -- 100
2021-02-19 07:00:00 11.5 4 Norte 8 Norte 0 1017.6 -- 96
2021-02-19 06:00:00 11.5 4 Noroeste 9 Norte 0 1017.3 -- 97
2021-02-19 05:00:00 11.3 6 Norte 11 Norte 0 1017 -- 100
2021-02-19 04:00:00 11 8 Norte 15 Norte 0 1016.8 -- 100
2021-02-19 03:00:00 9.7 12 Norte 15 Norte 0 1016.8 -- 100
2021-02-19 02:00:00 7.5 5 Norte 8 Norte 0 1016.4 -- 100
2021-02-19 01:00:00 7.8 5 Norte 8 Norte 0 1016.3 -- 100
2021-02-19 00:00:00 8.3 5 Norte 9 Norte 0 1016.5 -- 100
2021-02-18 23:00:00 9.4 8 Oeste 11 Oeste 0 1016.5 -- 100
2021-02-18 22:00:00 10 9 Oeste 13 Oeste 0 1016.2 -- 100
2021-02-18 21:00:00 10.9 10 Oeste 11 Oeste 0 1016.1 -- 98
2021-02-18 20:00:00 11.3 4 Oeste 8 Sudoeste 0 1015.9 -- 93
2021-02-18 19:00:00 12.4 3 Sur 11 Este 0 1015.3 -- 90
2021-02-18 18:00:00 13.7 8 Este 17 Norte 0 1014.8 -- 85
2021-02-18 17:00:00 14.7 12 Este 18 Este 0 1014.5 -- 80
2021-02-18 16:00:00 15.1 11 Este 21 Este 0 1014.4 -- 76
2021-02-18 15:00:00 15.7 12 Este 22 Norte 0 1014.2 -- 72
2021-02-18 14:00:00 16 10 Este 17 Nordeste 0 1014.9 -- 68
2021-02-18 13:00:00 15 9 Este 18 Este 0 1015.8 -- 73
2021-02-18 12:00:00 14.5 11 Este 18 Norte 0 1016.3 -- 78
2021-02-18 11:00:00 13.8 7 Este 15 Norte 0 1016.6 -- 74
2021-02-18 10:00:00 12.7 4 Nordeste 8 Este 0 1016.3 -- 72
2021-02-18 09:00:00 9.2 6 Sudoeste 13 Oeste 0 1015.9 -- 82
2021-02-18 08:00:00 6.3 4 Oeste 8 Oeste 0 1015.3 -- 96
2021-02-18 07:00:00 5.4 4 Oeste 15 Oeste 0 1015.3 -- 96
2021-02-18 06:00:00 6.5 9 Oeste 13 Oeste 0 1015.7 -- 95
2021-02-18 05:00:00 8.5 5 Noroeste 17 Noroeste 0 1015.5 -- 93
2021-02-18 04:00:00 9.8 13 Noroeste 17 Noroeste 0 1016 -- 95
2021-02-18 03:00:00 11.3 8 Noroeste 13 Norte 0 1016.9 -- 94
2021-02-18 02:00:00 12 7 Norte 13 Nordeste 0 1017.3 -- 93
2021-02-18 01:00:00 11.8 4 Sudeste 9 Este 0 1017.7 -- 97
2021-02-18 00:00:00 11.7 8 Norte 13 Norte 0 1017.7 -- 99
2021-02-17 23:00:00 11.3 9 Norte -- -- 0 1017.8 -- 100
2021-02-17 22:00:00 10.7 3 Norte 5 Norte 0 1017.9 -- 100
2021-02-17 21:00:00 12.2 3 Nordeste 8 Nordeste 0 1017.9 -- 100
2021-02-17 20:00:00 11.3 3 Nordeste 11 Este 0 1017.9 -- 99
2021-02-17 19:00:00 12.7 9 Nordeste 11 Este 0 1017.7 -- 91
2021-02-17 18:00:00 14.9 9 Este 17 Norte 0 1017.9 -- 72
2021-02-17 17:00:00 16.1 11 Este 17 Este 0 1018.1 -- 71
2021-02-17 16:00:00 16.6 11 Este 18 Este 0 1018.6 -- 64
2021-02-17 15:00:00 16.5 10 Este 18 Este 0 1019 -- 67
2021-02-17 14:00:00 16.1 13 Este 24 Este 0 1019.8 -- 69
2021-02-17 13:00:00 16.3 15 Este 22 Este 0 1020.8 -- 68
2021-02-17 12:00:00 15.6 15 Nordeste 26 Este 0 1021.2 -- 63
2021-02-17 11:00:00 15.9 13 Nordeste 18 Nordeste 0 1021.4 -- 60
2021-02-17 10:00:00 14.6 0 Calma 8 Nordeste 0 1020.9 -- 63
2021-02-17 09:00:00 9.1 5 Oeste 8 Oeste 0 1020.6 -- 85
2021-02-17 08:00:00 5.6 3 Sudoeste 11 Oeste 0 1020.1 -- 92
2021-02-17 07:00:00 5.8 8 Oeste 13 Sudoeste 0 1019.9 -- 93
2021-02-17 06:00:00 5.1 6 Oeste 9 Sudoeste 0 1019.7 -- 94
2021-02-17 05:00:00 5.2 8 Sudoeste 13 Sudoeste 0 1019.7 -- 94
2021-02-17 04:00:00 -- 11 Sudoeste -- -- 0 1020.1 -- --
2021-02-17 03:00:00 6.3 8 Oeste 9 Oeste 0 1020.5 -- 93
2021-02-17 02:00:00 7.2 6 Oeste 11 Oeste 0 1020.9 -- 93
2021-02-17 01:00:00 7.5 10 Oeste 13 Oeste 0 1021.3 -- 92
2021-02-17 00:00:00 7.2 -- -- -- -- 0 1021.7 -- 100
2021-02-16 23:00:00 8.6 -- -- -- -- 0 1021.9 -- 93
2021-02-16 22:00:00 9.2 4 Oeste 9 Noroeste 0 1022 -- 95
2021-02-16 21:00:00 9.4 8 Oeste 11 Oeste 0 1022.1 -- 93
2021-02-16 20:00:00 11.1 9 Sur 11 Sudoeste 0 1022.3 -- 89
2021-02-16 19:00:00 12.1 3 Sur 18 Sudoeste 0 1022.3 -- 84
2021-02-16 18:00:00 14.1 14 Sur 22 Sur 0 1022 -- 73
2021-02-16 17:00:00 15.2 14 Sur 26 Sur 0 1022.2 -- 67
2021-02-16 16:00:00 15.9 15 Sur 28 Sur 0 1022.6 -- 61
2021-02-16 15:00:00 17.4 17 Sur 28 Sur 0 1023.1 -- 51
2021-02-16 14:00:00 16.6 16 Sudoeste 28 Oeste 0 1024.1 -- 51
2021-02-16 13:00:00 15.4 13 Sudoeste 22 Sudoeste 0 1025.3 -- 56
2021-02-16 12:00:00 14.2 14 Sudoeste 22 Oeste 0 1026.2 -- 62
2021-02-16 11:00:00 13.1 12 Sudoeste 21 Oeste 0 1026.4 -- 65
2021-02-16 10:00:00 11.8 7 Oeste 13 Oeste 0 1026.7 -- 71
2021-02-16 09:00:00 9.6 6 Oeste 13 Noroeste 0 1026.6 -- 85
2021-02-16 08:00:00 7.6 10 Noroeste 13 Oeste 0 1026.7 -- 93
2021-02-16 07:00:00 6.8 11 Noroeste -- -- 0 1026.9 -- 95
2021-02-16 06:00:00 7.3 10 Noroeste -- -- 0 1027.3 -- 95
2021-02-16 05:00:00 6.8 6 Noroeste -- -- 0 1027.7 -- 97
2021-02-16 04:00:00 7 7 Noroeste -- -- 0 1028.3 -- 98
2021-02-16 03:00:00 -- -- -- -- -- 0 1028.8 -- --
2021-02-16 02:00:00 -- 8 Noroeste 9 Noroeste 0 1029.3 -- --
2021-02-16 01:00:00 7 8 Noroeste -- -- 0 1029.9 -- 100
2021-02-16 00:00:00 7.2 6 Norte -- -- 0 1030.2 -- 98
2021-02-15 23:00:00 7.8 5 Norte -- -- 0 1030.6 -- 96
2021-02-15 22:00:00 9.4 0 Calma 5 Noroeste 0 1030.8 -- 92
2021-02-15 21:00:00 10.4 0 Calma 4 Noroeste 0 1031.1 -- 86
2021-02-15 20:00:00 9.7 0 Calma 5 Sudeste 0 1030.8 -- 88
2021-02-15 19:00:00 10.3 5 Este 13 Sudeste 0 1030.6 -- 81
2021-02-15 18:00:00 12.5 9 Este 18 Este 0 1030.4 -- 74
2021-02-15 17:00:00 13.2 12 Sudeste 22 Sudeste 0 1030.4 -- 70
2021-02-15 16:00:00 13.5 14 Sudeste 22 Este 0 1030.7 -- 69
2021-02-15 15:00:00 14.4 14 Este 24 Sudeste 0 1030.9 -- 66
2021-02-15 14:00:00 14.1 13 Sudeste 24 Sudeste 0 1031.4 -- 68
2021-02-15 13:00:00 14 15 Sudeste 24 Este 0 1032.1 -- 69
2021-02-15 12:00:00 13.9 13 Sudeste 18 Este 0 1032.4 -- 72
2021-02-15 11:00:00 13.3 12 Sudeste 17 Sudeste 0 1032.6 -- 75
2021-02-15 10:00:00 12.7 10 Sudeste 15 Sudeste 0 1032.1 -- 86
2021-02-15 09:00:00 11.7 6 Nordeste 11 Nordeste 0 1031.4 -- 100
2021-02-15 08:00:00 11.5 7 Norte 13 Norte 0 1030.9 -- 100
2021-02-15 07:00:00 11.6 9 Norte 13 Norte 0 1030.6 -- 96
2021-02-15 06:00:00 11.6 9 Norte 15 Norte 0 1030.6 -- 99
2021-02-15 05:00:00 11.6 10 Norte 13 Norte 0.1 1030.6 -- 99
2021-02-15 04:00:00 11.6 9 Norte 15 Norte 0.5 1030.8 -- 100
2021-02-15 03:00:00 12.3 12 Norte 17 Norte 0 1030.9 -- 92
2021-02-15 02:00:00 12.5 3 Sudeste 11 Sudeste 0 1031.1 -- 91
2021-02-15 01:00:00 12.4 8 Sudeste 17 Sudeste 0.1 1031.1 -- 92
2021-02-15 00:00:00 12.6 6 Sudeste 21 Sudeste 0.9 1031.1 -- 92
2021-02-14 23:00:00 13.3 9 Sudeste 17 Sudeste 0 1031.1 -- 82
2021-02-14 22:00:00 13.3 8 Sudeste 24 Sudeste 0 1030.8 -- 81
2021-02-14 21:00:00 13.3 18 Este 26 Este 0 1030.4 -- 85
2021-02-14 20:00:00 13.2 16 Este 26 Este 0 1030.1 -- 91
2021-02-14 19:00:00 13.7 19 Este 30 Este 0 1029.4 1.3 85
2021-02-14 18:00:00 14.1 21 Nordeste 32 Este 0 1029.1 1.4 81
2021-02-14 17:00:00 15 22 Este 39 Este 0 1028.6 -- 80
2021-02-14 16:00:00 15.9 25 Este 37 Este 0 1028.1 -- 76
2021-02-14 15:00:00 16.1 24 Nordeste 37 Norte 0 1027.7 -- 69
2021-02-14 14:00:00 16.5 27 Este 37 Este 0 1027.7 -- 63
2021-02-14 13:00:00 16.7 17 Este 30 Este 0 1027.9 -- 57
2021-02-14 12:00:00 17 14 Este 22 Este 0 1027.9 -- 57
2021-02-14 11:00:00 15.7 10 Este 17 Este 0 1027.3 -- 70
2021-02-14 10:00:00 15 5 Este 11 Este 0 1026.7 -- 75
2021-02-14 09:00:00 11.6 6 Norte 13 Nordeste 0 1026.2 -- 76
2021-02-14 08:00:00 10.2 9 Norte 13 Norte 0 1025.3 -- 81
2021-02-14 07:00:00 10.4 10 Nordeste 17 Norte 0 1024.3 -- 84
2021-02-14 06:00:00 11.6 11 Norte 15 Norte 0 1023.8 -- 75
2021-02-14 05:00:00 9.9 9 Norte 15 Norte 0 1023.3 -- 84
2021-02-14 04:00:00 10.8 12 Norte 15 Norte 0 1023 -- 76
2021-02-14 03:00:00 10.5 11 Norte 13 Norte 0 1022.9 -- 77
2021-02-14 02:00:00 9.3 6 Noroeste 11 Norte 0 1022.6 -- 82
2021-02-14 01:00:00 10.4 7 Norte 11 Norte 0 1022.4 -- 78
2021-02-14 00:00:00 12.6 8 Norte 13 Noroeste 0 1022.1 -- 70
2021-02-13 23:00:00 11.9 9 Norte 17 Norte 0 1022.2 -- 73
2021-02-13 22:00:00 13.3 12 Norte 17 Norte 0 1022.3 -- 71
2021-02-13 21:00:00 13.4 12 Norte 21 Nordeste 0 1021.9 -- 78
2021-02-13 20:00:00 13.8 14 Nordeste 24 Nordeste 0 1021.7 -- 84
2021-02-13 19:00:00 14.7 16 Nordeste 24 Nordeste 0 1020.9 -- 82
2021-02-13 18:00:00 15.8 16 Nordeste 26 Este 0 1020.2 -- 73
2021-02-13 17:00:00 17 14 Este 32 Este 0 1019.7 -- 63
2021-02-13 16:00:00 19.7 21 Nordeste 32 Nordeste 0 1019.1 -- 52
2021-02-13 15:00:00 22.4 5 Este 22 Oeste 0 1018.8 -- 26
2021-02-13 14:00:00 21.5 10 Oeste 28 Noroeste 0 1019.4 -- 27
2021-02-13 13:00:00 21.1 15 Noroeste 30 Noroeste 0 1020.2 -- 29
2021-02-13 08:00:00 14.3 16 Oeste 42 Oeste 0 1019.1 0.9 51
2021-02-13 07:00:00 14.7 14 Oeste 33 Noroeste 0 1018.7 0.5 49
2021-02-13 06:00:00 14.6 24 Noroeste 41 Oeste 0 1017.9 -0.2 50
2021-02-13 05:00:00 14.7 14 Oeste 35 Oeste 0 1018.2 0.3 50
2021-02-13 04:00:00 14.2 13 Sudoeste 32 Oeste 0 1018.2 0.4 50
2021-02-13 03:00:00 14.9 12 Oeste 33 Sudoeste 0 1018.1 0.5 48
2021-02-13 02:00:00 14.7 21 Sudoeste 41 Sudoeste 0 1017.9 -- 48
2021-02-13 01:00:00 15.6 20 Sudoeste 48 Noroeste 0 1017.8 0.6 46
2021-02-13 00:00:00 16.2 19 Noroeste 46 Noroeste 0 1017.6 0.7 44
2021-02-12 23:00:00 16.7 35 Noroeste 46 Noroeste 0 -- -- 44
2021-02-12 22:00:00 17.1 26 Oeste 33 Oeste 0 1017.2 1.8 44
2021-02-12 21:00:00 17.7 18 Oeste 37 Oeste 0 1016.9 2.7 41
2021-02-12 20:00:00 18.2 17 Oeste 42 Noroeste 0 1016.2 2.6 38
2021-02-12 19:00:00 19.2 30 Oeste 61 Noroeste 0 1015.4 1.9 34
2021-02-12 18:00:00 20.4 42 Noroeste 63 Oeste 0 1014.2 0.9 30
2021-02-12 17:00:00 21.3 33 Noroeste 52 Noroeste 0 1013.6 0.3 32
2021-02-12 16:00:00 22.6 37 Oeste 65 Oeste 0 1013.5 -0.2 25
2021-02-12 15:00:00 23.4 42 Oeste 59 Oeste 0 1013.3 -1 22
2021-02-12 14:00:00 23.1 36 Oeste 58 Oeste 0 1013.3 -1.1 29
2021-02-12 13:00:00 22.7 37 Oeste 59 Oeste 0 1013.7 -0.5 32
2021-02-12 12:00:00 21.7 17 Oeste 39 Oeste 0 1014.3 0.3 42
2021-02-12 11:00:00 17 7 Sudoeste 15 Sudoeste 0 1014.4 0.9 67
2021-02-12 10:00:00 16.7 10 Sudoeste 17 Oeste 0 1014.2 0.6 67
2021-02-12 09:00:00 17.1 9 Sudoeste 13 Oeste 0 1014 -- 64
2021-02-12 08:00:00 15.6 12 Oeste 15 Oeste 0 1013.5 -- 70
2021-02-12 07:00:00 15.5 6 Oeste 11 Oeste 0 1013.6 -- 72
2021-02-12 06:00:00 12.9 5 Sudoeste 9 Oeste 0 1013.7 -- 82
2021-02-12 05:00:00 12.9 0 Calma 5 Oeste 0 1013.6 -- 83
2021-02-12 04:00:00 13.2 0 Calma 5 Sur 0 1013.7 -- 83
2021-02-12 03:00:00 14.5 0 Calma 9 Nordeste 0 1014.3 -- 76
2021-02-12 02:00:00 15.5 7 Oeste 15 Oeste 0 1014.6 -- 73
2021-02-12 01:00:00 14.2 10 Oeste 11 Oeste 0 1014.7 -- 78
2021-02-12 00:00:00 13.7 2 Oeste 11 Este 0 1015.1 -- 79
2021-02-11 23:00:00 14 5 Sudeste 8 Sudeste 0 1015.4 -- 74
2021-02-11 22:00:00 14.6 4 Noroeste 8 Este 0 1015.3 -- 73
2021-02-11 21:00:00 16.4 3 Sur 13 Oeste 0 1015.1 -- 63
2021-02-11 20:00:00 16.7 10 Oeste 13 Sudoeste 0 1014.9 -- 64
2021-02-11 19:00:00 17.7 10 Sudoeste 18 Oeste 0 1014.6 -- 57
2021-02-11 18:00:00 19.7 15 Sudoeste 28 Sudoeste 0 1014.2 -- 49
2021-02-11 17:00:00 20.9 18 Sur 33 Sur 0 1013.9 -- 47
2021-02-11 16:00:00 22.4 17 Sur 32 Sur 0 1014.1 -- 41
2021-02-11 15:00:00 22 18 Sur 32 Sur 0 1014.3 -- 41
2021-02-11 14:00:00 21.8 16 Sur 24 Sur 0 1015 -- 42
2021-02-11 13:00:00 22 10 Sudoeste 21 Sudoeste 0 1015.6 -- 44
2021-02-11 12:00:00 20.2 9 Sudoeste 21 Sur 0 1016.5 -- 48
2021-02-11 11:00:00 18.9 9 Oeste 15 Oeste 0 1016.5 -- 50
2021-02-11 10:00:00 17 8 Sudoeste 11 Sudoeste 0 1016.4 -- 53
2021-02-11 09:00:00 13.1 8 Oeste 17 Sudoeste 0 1016.1 -- 63
2021-02-11 08:00:00 9.9 14 Sudoeste 17 Sudoeste 0 1015.7 -- 67
2021-02-11 07:00:00 10.8 10 Oeste 17 Sudoeste 0 1015.1 -- 62
2021-02-11 06:00:00 12 13 Oeste 13 Noroeste 0 1015 -- 55
2021-02-11 05:00:00 11.5 8 Oeste 11 Sudoeste 0 1014.7 -- 56
2021-02-11 04:00:00 10.7 4 Sur 13 Oeste 0 1014.9 -- 61
2021-02-11 03:00:00 12.2 10 Oeste 24 Oeste 0 1014.9 -- 54
2021-02-11 02:00:00 14.8 17 Oeste 28 Oeste 0 1014.5 -- 46
2021-02-11 01:00:00 12.7 10 Oeste 21 Oeste 0 1014.5 -- 51
2021-02-11 00:00:00 14.9 17 Oeste 22 Oeste 0 1013.9 -- 44
2021-02-10 23:00:00 14.1 5 Sudeste 15 Noroeste 0 1013.4 -- 48
2021-02-10 22:00:00 15.1 9 Oeste 22 Noroeste 0 1013.2 -- 44
2021-02-10 21:00:00 16.1 3 Sudeste 26 Oeste 0 1012.7 -- 38
2021-02-10 20:00:00 17.5 11 Oeste 26 Noroeste 0 1011.8 -- 34
2021-02-10 19:00:00 17.7 13 Noroeste 41 Noroeste 0 1010.4 -- 32
2021-02-10 18:00:00 20.4 29 Noroeste 45 Noroeste 0 1008.6 -- 25
2021-02-10 17:00:00 21.2 27 Noroeste 46 Noroeste 0 1008 -- 27
2021-02-10 16:00:00 21.7 36 Noroeste 50 Noroeste 0 1007.2 -- 25
2021-02-10 15:00:00 21.5 34 Noroeste 52 Noroeste 0 1006.8 -- 26
2021-02-10 14:00:00 21.4 35 Noroeste 52 Noroeste 0 1006.3 -- 28
2021-02-10 13:00:00 20.9 32 Oeste 58 Oeste 0 1006.5 -- 30
2021-02-10 12:00:00 19.9 37 Oeste 54 Oeste 0 1006.1 -- 38
2021-02-10 11:00:00 17.6 23 Oeste 42 Oeste 0 1005.9 -- 45
2021-02-10 10:00:00 15.2 22 Sudoeste 35 Sudoeste 0 1005.5 -- 49
2021-02-10 09:00:00 11.9 12 Sudoeste 18 Sudoeste 0 1004.8 -- 58
2021-02-10 08:00:00 10.5 10 Oeste 18 Oeste 0 1004 -- 60
2021-02-10 07:00:00 13.5 14 Oeste 28 Oeste 0 1003.7 -- 47
2021-02-10 06:00:00 12.8 10 Sudoeste 21 Oeste 0 1004.4 -- 58
2021-02-10 05:00:00 9.7 12 Oeste 17 Oeste 0 1003.4 -- 82
2021-02-10 04:00:00 9.8 5 Sur 9 Sur 0 1003.3 -- 82
2021-02-10 03:00:00 12.5 6 Sur 13 Noroeste 0 1003.4 -- 70
2021-02-10 02:00:00 13.3 11 Sur 32 Oeste 0 1003.7 -- 64
2021-02-10 01:00:00 15.4 20 Oeste 32 Oeste 0 1003.5 -- 57
2021-02-10 00:00:00 11.8 10 Sudoeste 18 Sudoeste 0 1003.6 -- 74
2021-02-09 23:00:00 11.2 7 Sudeste 15 Oeste 0 1003.5 -- 72
2021-02-09 22:00:00 12.7 4 Sudoeste 15 Sudoeste 0 1002.9 -- 67
2021-02-09 21:00:00 12.5 13 Oeste 15 Oeste 0 1002.7 -- 65
2021-02-09 20:00:00 11.7 9 Oeste 11 Oeste 0 1002.8 -- 69
2021-02-09 19:00:00 11.6 9 Oeste 13 Oeste 0 1002.4 -- 68
2021-02-09 18:00:00 14 5 Sudoeste 8 Oeste 0 1002.2 -- 60
2021-02-09 17:00:00 13.6 2 Sudeste -- -- 0 1002.2 -- 63
2021-02-09 16:00:00 13.6 6 Oeste 8 Oeste 0 1003.1 -- 58
2021-02-09 15:00:00 14 7 Sudoeste 15 Sudoeste 0 1004.1 -- 53
2021-02-09 14:00:00 13.9 10 Sudoeste 17 Sudoeste 0 1004.9 -- 52
2021-02-09 13:00:00 12.9 9 Sudoeste 15 Sudoeste 0 1005.9 -- 59
2021-02-09 12:00:00 13.2 10 Sur 15 Sur 0 1006.9 -- 58
2021-02-09 11:00:00 13.6 6 Sudoeste 13 Oeste 0 1007.1 -- 52
2021-02-09 10:00:00 12.7 10 Oeste 13 Oeste 0 1007.1 -- 55
2021-02-09 09:00:00 10.1 6 Sudoeste 13 Oeste 0 1007.2 -- 66
2021-02-09 08:00:00 8 8 Oeste 21 Sur 0 1006.9 -- 74
2021-02-09 07:00:00 10.3 11 Sur 17 Sudoeste 0 1006.7 -- 62
2021-02-09 06:00:00 10.2 9 Noroeste 18 Noroeste 0 1006.3 -- 63
2021-02-09 05:00:00 10.5 16 Noroeste 18 Noroeste 0 1006 -- 62
2021-02-09 04:00:00 9.6 13 Noroeste 15 Noroeste 0 1006.6 -- 64
2021-02-09 03:00:00 9.6 8 Sudoeste 15 Oeste 0 1006.7 -- 65
2021-02-09 02:00:00 9 2 Sudoeste -- -- -- 1006.4 -- 70
2021-02-09 01:00:00 10.3 4 Sur 11 Oeste 0 1006 -- 64
2021-02-09 00:00:00 13.3 9 Sudoeste 26 Oeste 0 1005.9 -- 55
2021-02-08 23:00:00 14.2 14 Sudoeste 33 Oeste 0 1005.2 -- 50
2021-02-08 22:00:00 14.9 18 Sudoeste 41 Oeste 0 1004.4 -- 46
2021-02-08 21:00:00 14.8 30 Oeste 58 Oeste 0 1003.1 -- 46
2021-02-08 20:00:00 15.2 28 Oeste 54 Oeste 0 1002.1 -- 42
2021-02-08 19:00:00 16.2 38 Oeste 58 Sudoeste 0 1001.4 -- 38
2021-02-08 18:00:00 17.7 31 Oeste 58 Oeste 0 1000.9 -- 35
2021-02-08 17:00:00 18.7 42 Oeste 61 Oeste 0 1000.4 -- 31
2021-02-08 16:00:00 19.2 32 Oeste 48 Oeste 0 999.8 -- 30
2021-02-08 15:00:00 18.2 22 Oeste 48 Oeste 0 -- -- 33
2021-02-08 14:00:00 17.7 33 Oeste 50 Oeste 0 1000.3 -- 31
2021-02-08 13:00:00 18 21 Oeste 35 Oeste 0 1000.8 -- 38
2021-02-08 12:00:00 16.4 16 Sudoeste 30 Sudoeste 0 1001.2 -- 48
2021-02-08 11:00:00 15.2 12 Sudoeste 18 Oeste 0 1001.3 -- 54
2021-02-08 10:00:00 10.9 8 Noroeste 11 Noroeste 0.1 1001.1 -- 74
2021-02-08 09:00:00 9.8 8 Oeste 15 Sudoeste 0 1001.4 -- 69
2021-02-08 08:00:00 9.7 10 Sudoeste 15 Oeste 0 1002 -- 68
2021-02-08 07:00:00 9.7 6 Oeste 17 Sudoeste 0 1001.5 -- 67
2021-02-08 06:00:00 9.6 7 Sudoeste 15 Sur 0 1002.8 -- 67
2021-02-08 05:00:00 11.3 8 Sur 26 Oeste 0 1002.8 -- 58
2021-02-08 04:00:00 12.8 21 Oeste 41 Oeste 0 1003.1 -- 52
2021-02-08 03:00:00 13.6 29 Oeste 42 Oeste 0 1003.5 -- 50
2021-02-08 02:00:00 14.2 11 Oeste 17 Oeste 0 1003.9 -- 48
2021-02-08 01:00:00 14.6 14 Oeste 26 Oeste 0 1003.9 -- 46
2021-02-08 00:00:00 14.6 16 Oeste 28 Oeste 0 1004.1 -- 44
2021-02-07 23:00:00 14.4 17 Oeste 33 Oeste 0 1004.2 -- 43
2021-02-07 22:00:00 14.5 27 Oeste 39 Oeste 0 1004 -- 42
2021-02-07 21:00:00 14.9 20 Oeste 32 Oeste 0 1004.1 -- 42
2021-02-07 20:00:00 15.3 21 Oeste 30 Oeste 0 1003.5 -- 48
2021-02-07 19:00:00 15.2 15 Oeste 35 Noroeste 0 1002.9 -- 49
2021-02-07 18:00:00 16.6 24 Noroeste 42 Noroeste 0 1002.3 -- 43
2021-02-07 17:00:00 17.6 27 Oeste 45 Oeste 0 1002.1 -- 40
2021-02-07 16:00:00 17.4 31 Oeste 45 Oeste 0 1002 -- 41
2021-02-07 15:00:00 17.3 36 Oeste 50 Oeste 0 1001.9 -- 40
2021-02-07 14:00:00 17.5 28 Oeste 45 Oeste 0 1002 -- 39
2021-02-07 13:00:00 16.9 24 Oeste 42 Oeste 0 1002.8 -- 43
2021-02-07 12:00:00 17.6 24 Noroeste 37 Noroeste 0 1002.8 -- 44
2021-02-07 11:00:00 15.6 15 Oeste 24 Sudoeste 0 1002.8 -- 52
2021-02-07 10:00:00 12.3 5 Sudoeste 13 Oeste 0 1002.4 -- 64
2021-02-07 09:00:00 9.3 6 Sur 13 Sudoeste 0 1002 -- 75
2021-02-07 08:00:00 8.6 8 Sur 15 Oeste 0 1001.8 -- 76
2021-02-07 07:00:00 10 8 Oeste 13 Sudoeste 0 1001.5 -- 70
2021-02-07 06:00:00 9.8 9 Oeste 13 Oeste 0 1001.4 -- 70
2021-02-07 05:00:00 11.5 12 Noroeste 18 Noroeste 0 1001.1 -- 62
2021-02-07 04:00:00 10.9 14 Noroeste 18 Noroeste 0 1001.1 -- 63
2021-02-07 03:00:00 12.6 11 Oeste 18 Oeste 0 1001.2 -- 57
2021-02-07 02:00:00 13 12 Oeste -- -- -- 1001.1 -- 55
2021-02-07 01:00:00 13.1 15 Oeste 26 Oeste 0 1000.8 -- 54
2021-02-07 00:00:00 13.4 18 Oeste 26 Oeste 0 1000.8 -- 51
2021-02-06 23:00:00 13.8 18 Oeste 32 Oeste 0 1000.9 -- 50
2021-02-06 22:00:00 14.1 13 Sudoeste 17 Sudoeste 0 1000.3 -- 48
2021-02-06 21:00:00 14.6 10 Oeste 13 Oeste 0 1000 -- 47
2021-02-06 20:00:00 13.6 7 Oeste 15 Sudoeste 0 999.5 -- 71
2021-02-06 19:00:00 15.6 10 Sudoeste 18 Sudoeste 0 998.8 -- 64
2021-02-06 18:00:00 16.3 11 Sur 35 Sur 0 998.2 -- 68
2021-02-06 17:00:00 17.8 21 Sur 33 Sur 0 997.6 -- 62
2021-02-06 16:00:00 18.6 22 Sur 35 Sur 0 997.5 -- 59
2021-02-06 15:00:00 19.3 18 Sur 28 Sur 0 997.7 -- 52
2021-02-06 14:00:00 18.9 15 Sur 30 Sudoeste 0 998.3 -- 49
2021-02-06 13:00:00 18.3 18 Sudoeste 30 Sudoeste 0 999.3 -- 50
2021-02-06 12:00:00 17.2 19 Sudoeste 33 Sudoeste 0 1000 -- 53
2021-02-06 11:00:00 15.9 7 Sudoeste 13 Sudoeste 0 1000.4 -- 61
2021-02-06 10:00:00 13.9 3 Oeste 11 Oeste 0 1000.1 -- 71
2021-02-06 09:00:00 9.9 7 Oeste 9 Oeste 0 1000.2 -- 89
2021-02-06 08:00:00 8.4 6 Noroeste 8 Noroeste 0 999.8 -- 90
2021-02-06 07:00:00 10.2 6 Sudeste 11 Norte 0 999.6 -- 84
2021-02-06 06:00:00 10.8 12 Oeste 15 Oeste 0 999.2 -- 83
2021-02-06 05:00:00 11.6 10 Sudoeste 15 Sudoeste 0 999.1 -- 79
2021-02-06 04:00:00 12.6 5 Sur 22 Noroeste 0 999.1 -- 76
2021-02-06 03:00:00 14.2 18 Noroeste 33 Noroeste 0 999 -- 69
2021-02-06 02:00:00 14.9 24 Oeste -- -- -- 999.3 -- 64
2021-02-06 01:00:00 15.2 20 Sudoeste 30 Sudoeste 0 999.7 -- 65
2021-02-06 00:00:00 16.2 7 Este 13 Norte 0 997.5 -- 56
2021-02-05 23:00:00 15.6 10 Oeste 30 Oeste 0 998.8 -- 65
2021-02-05 22:00:00 14.8 6 Oeste 15 Oeste 0 998.2 -- 76
2021-02-05 21:00:00 14.7 10 Este 13 Este 0 998 -- 75
2021-02-05 20:00:00 15.3 6 Nordeste 17 Nordeste 0 998.6 -- 68
2021-02-05 19:00:00 14.5 13 Este 21 Nordeste 0 999.1 -- 80
2021-02-05 18:00:00 15.6 10 Este 32 Este 0 999.6 -- 70
2021-02-05 17:00:00 16.5 22 Este 30 Nordeste 0 999.9 -- 68
2021-02-05 16:00:00 17.1 23 Este 37 Este 0 1000.3 -- 64
2021-02-05 15:00:00 17.3 25 Este 33 Nordeste 0 1000.9 -- 62
2021-02-05 14:00:00 17.3 24 Nordeste 35 Este 0 1002 -- 64
2021-02-05 13:00:00 17.3 22 Este 35 Nordeste 0 1003.6 -- 65
2021-02-05 12:00:00 17.6 20 Este 28 Este 0 1004.4 -- 61
2021-02-05 11:00:00 16.7 14 Nordeste 24 Nordeste 0 1004.9 -- 64
2021-02-05 10:00:00 15.1 13 Nordeste 21 Este 0 1004.9 -- 74
2021-02-05 09:00:00 12.5 10 Nordeste 15 Nordeste 0 1005.2 -- 87
2021-02-05 08:00:00 9.6 5 Nordeste 8 Norte 0 1004.9 -- 97
2021-02-05 07:00:00 8.9 6 Noroeste 11 Oeste 0 1004.9 -- 98
2021-02-05 06:00:00 9.3 6 Oeste 11 Oeste 0 1005 -- 95
2021-02-05 05:00:00 11 4 Norte 9 Nordeste 0 1005.2 -- 89
2021-02-05 04:00:00 11.1 4 Este 9 Sur 0 1005.4 -- 98
2021-02-05 03:00:00 12.1 6 Noroeste 15 Norte 0 1005.7 -- 93
2021-02-05 02:00:00 12.4 10 Nordeste 24 Este 0 1006.5 -- 96
2021-02-05 01:00:00 13 17 Este 30 Este 0 1007.5 -- 95
2021-02-05 00:00:00 13 20 Este 26 Nordeste 0 1007.5 -- 96
2021-02-04 23:00:00 11.8 10 Nordeste 17 Sudeste 0 1006.9 -- 98
2021-02-04 22:00:00 11.4 8 Este 15 Sudeste 0 1006.9 -- 95
2021-02-04 21:00:00 12 3 Noroeste 8 Sudeste 0 1006.8 -- 96
2021-02-04 20:00:00 12.3 0 Calma 8 Nordeste 0 1007.3 -- 94
2021-02-04 19:00:00 12.7 5 Nordeste 9 Este 0 1007.4 -- 92
2021-02-04 18:00:00 13.2 6 Este 13 Este 0 1007.4 -- 90
2021-02-04 17:00:00 14.1 9 Este 18 Este 0 1007.4 -- 86
2021-02-04 16:00:00 14.2 9 Nordeste 18 Este 0 1007.5 -- 86
2021-02-04 15:00:00 14.5 10 Este 18 Nordeste 0 1007.8 -- 83
2021-02-04 14:00:00 14.4 11 Este 22 Este 0 1008.6 -- 84
2021-02-04 13:00:00 14.4 14 Este 26 Este 0 1009.4 -- 83
2021-02-04 12:00:00 14.2 12 Nordeste 24 Este 0 1010 -- 85
2021-02-04 11:00:00 13.8 10 Nordeste 18 Nordeste 0 1009.8 -- 86
2021-02-04 10:00:00 12.1 6 Nordeste 13 Oeste 0 1010.2 -- 100
2021-02-04 09:00:00 10.6 11 Oeste 13 Oeste 0 1010.2 -- 100
2021-02-04 08:00:00 10.6 0 Calma 9 Norte 0 1009.2 -- 100
2021-02-04 07:00:00 10.8 8 Norte 17 Norte 0 1008.8 -- 100
2021-02-04 06:00:00 11.7 12 Norte 15 Norte 0 1008.8 -- 100
2021-02-04 05:00:00 11.5 6 Norte 13 Norte 0 1009 -- 100
2021-02-04 04:00:00 10.3 9 Nordeste 13 Nordeste 0 1009.4 -- 98
2021-02-04 03:00:00 10.8 5 Nordeste 9 Nordeste 0 1009.8 -- 96
2021-02-04 02:00:00 11.8 9 Norte 11 Nordeste 0 1009.6 -- 97
2021-02-04 01:00:00 10.7 5 Nordeste 9 Norte 0 1010.1 -- 91
2021-02-04 00:00:00 11.8 4 Norte 8 Este 0 1009.9 -- 83
2021-02-03 23:00:00 12.1 0 Calma 8 Noroeste 0 1010.1 -- 84
2021-02-03 22:00:00 12.2 3 Sudeste 5 Sudeste 0 1010.4 -- 85
2021-02-03 21:00:00 13.2 0 Calma 11 Norte 0 1010.4 -- 80
2021-02-03 20:00:00 13.4 -- -- -- -- 0 1010.5 -- 90
2021-02-03 19:00:00 13.5 4 Nordeste 8 Este 0 1010.3 -- 93
2021-02-03 18:00:00 14.8 6 Nordeste 13 Este 0 1009.8 -- 79
2021-02-03 17:00:00 16.9 9 Este 13 Norte 0 1009.8 -- 66
2021-02-03 16:00:00 17.6 8 Nordeste 13 Sur 0 1009.9 -- 62
2021-02-03 15:00:00 17.9 8 Sur 13 Sudoeste 0 1010.1 -- 59
2021-02-03 14:00:00 17.6 10 Sur 18 Sur 0 1010.5 -- 59
2021-02-03 13:00:00 17.7 10 Este 22 Sudeste 0 1011.1 -- 62
2021-02-03 12:00:00 19.2 8 Sur 26 Sudoeste 0 1011.7 -- 47
2021-02-03 11:00:00 19.8 15 Sudoeste 24 Oeste 0 1011.8 -- 38
2021-02-03 10:00:00 16.4 3 Este 8 Este 0 1011.6 -- 49
2021-02-03 09:00:00 13.9 4 Nordeste 18 Noroeste 0 1011.1 -- 55
2021-02-03 08:00:00 12.8 7 Oeste 13 Oeste 0 1010.9 -- 61
2021-02-03 07:00:00 13.1 7 Oeste 15 Oeste 0 1010.8 -- 60
2021-02-03 06:00:00 12.9 6 Sudoeste 17 Oeste 0 1010.8 -- 64
2021-02-03 05:00:00 14 13 Sudoeste 18 Oeste 0 1010.9 -- 61
2021-02-03 04:00:00 14.6 13 Oeste 24 Oeste 0 1010.9 -- 62
2021-02-03 03:00:00 14.9 15 Oeste 30 Oeste 0 1011.2 -- 63
2021-02-03 02:00:00 15.2 20 Oeste 28 Oeste 0 1011.1 -- 62
2021-02-03 01:00:00 14.1 13 Oeste 18 Oeste 0 1011.4 -- 67
2021-02-03 00:00:00 12.9 12 Oeste 15 Sudoeste 0 1011.4 -- 74
2021-02-02 23:00:00 11.6 7 Oeste 11 Oeste 0 1011.8 -- 88
2021-02-02 22:00:00 11.5 8 Sudoeste 9 Sudoeste 0 1011.8 -- 90
2021-02-02 21:00:00 13 -- -- -- -- 0 1011.9 -- 85
2021-02-02 20:00:00 13.2 6 Oeste 15 Sudoeste 0 1011.9 -- 91
2021-02-02 19:00:00 14.6 10 Sudoeste 24 Sur 0 1011.8 -- 87
2021-02-02 18:00:00 17.4 17 Sur 30 Sur 0 1011.4 -- 67
2021-02-02 17:00:00 19.7 20 Sur 30 Sur 0 1011.6 -- 54
2021-02-02 16:00:00 21.7 18 Sur 26 Sur 0 1011.5 -- 45
2021-02-02 15:00:00 23.1 13 Sudoeste 21 Sudoeste 0 1011.8 -- 40
2021-02-02 14:00:00 22.2 9 Oeste 28 Noroeste 0 1012.6 -- 41
2021-02-02 13:00:00 20.2 15 Noroeste 39 Noroeste -- 1014 -- 46
2021-02-02 12:00:00 19.3 31 Noroeste 52 Oeste -- 1014.6 -- 48
2021-02-02 11:00:00 17.7 42 Oeste 61 Oeste 0 1014.2 -- 52
2021-02-02 10:00:00 16.7 27 Oeste 59 Oeste 0 1014.6 -- 54
2021-02-02 09:00:00 15.8 43 Noroeste 59 Noroeste 0 1013.9 -- 56
2021-02-02 08:00:00 15.1 28 Oeste 48 Oeste 0 1013.8 -- 58
2021-02-02 07:00:00 15.5 40 Oeste 52 Oeste 0 1012.3 -- 55
2021-02-02 06:00:00 15.6 22 Oeste 46 Oeste 0 1012.6 -- 56
2021-02-02 05:00:00 16.1 40 Oeste 55 Noroeste 0 1012.1 -- 54
2021-02-02 04:00:00 16.2 36 Oeste 63 Noroeste 0 1012.5 -- 54
2021-02-02 03:00:00 16.1 31 Oeste 74 Noroeste 0 1013 -- 54
2021-02-02 02:00:00 16.4 34 Noroeste 63 Noroeste 0 1012.9 -- 53
2021-02-02 01:00:00 16.3 47 Noroeste 67 Noroeste 0 1012 -- 53
2021-02-02 00:00:00 16.4 45 Noroeste 59 Noroeste 0 1011.9 -- 52
2021-02-01 23:00:00 17.5 8 Este 48 Noroeste 0 1013 -- 49
2021-02-01 22:00:00 17.6 33 Noroeste 46 Noroeste 0 1012.5 -- 49
2021-02-01 21:00:00 18.9 22 Oeste 37 Noroeste 0 1011.8 -- 44
2021-02-01 20:00:00 19.3 14 Oeste 45 Noroeste 0 1011.5 -- 44
2021-02-01 19:00:00 21 27 Noroeste 58 Noroeste 0 1010.1 -- 36
2021-02-01 18:00:00 22.2 38 Noroeste 68 Oeste 0 1009.2 -- 33
2021-02-01 17:00:00 23.4 39 Noroeste 67 Oeste 0 1008.6 -- 32
2021-02-01 16:00:00 23.3 41 Oeste 63 Noroeste 0 1008.2 -- 32
2021-02-01 15:00:00 24.1 46 Noroeste 67 Oeste 0 1007.7 -- 30
2021-02-01 14:00:00 23.7 46 Oeste 67 Noroeste 0 1007.6 -- 30
2021-02-01 13:00:00 23.4 47 Noroeste 63 Noroeste 0 1008.1 -- 29
2021-02-01 12:00:00 22.3 31 Noroeste 46 Noroeste 0 1008.5 -- 32
2021-02-01 11:00:00 21.3 19 Oeste 50 Oeste 0 1008.3 -- 32
2021-02-01 10:00:00 19.4 24 Oeste 54 Oeste 0 1007.3 -- 34
2021-02-01 09:00:00 19.1 38 Oeste 71 Noroeste 0 1006.2 -- 34
2021-02-01 08:00:00 17.8 37 Oeste 50 Oeste 0 1004.8 -- 39
2021-02-01 07:00:00 18.3 36 Noroeste 63 Noroeste 0 1004.2 -- 38
2021-02-01 06:00:00 18.7 34 Oeste 59 Oeste 0 1005 -- 39
2021-02-01 05:00:00 18.3 35 Oeste 55 Oeste 0 1005 -- 43
2021-02-01 04:00:00 18.7 21 Oeste 55 Oeste 0 1005.9 -- 44
2021-02-01 03:00:00 19.5 30 Oeste 55 Oeste 0 1006.6 -- 42
2021-02-01 02:00:00 19.4 19 Oeste 39 Noroeste 0 1007 -- 47
2021-02-01 01:00:00 16.8 14 Sudoeste 30 Sudoeste 0 1006.7 -- 56
2021-02-01 00:00:00 18 14 Sudoeste 33 Oeste 0 1006.7 -- 52
2021-01-31 23:00:00 18 20 Oeste 32 Oeste 0 1006.6 -- 52
2021-01-31 22:00:00 17.6 18 Sudoeste 30 Sudoeste 0 1006.5 -- 54
2021-01-31 21:00:00 17.3 21 Sudoeste 33 Sudoeste 0 1006.6 -- 53
2021-01-31 20:00:00 18.4 21 Oeste 35 Oeste 0 1007.3 -- 49
2021-01-31 19:00:00 18.9 14 Sudoeste 24 Oeste 0 1006.9 -- 47
2021-01-31 18:00:00 19 17 Sudoeste 45 Oeste 0 1006.8 -- 47
2021-01-31 17:00:00 19.9 31 Oeste 45 Oeste 0 1006.8 -- 44
2021-01-31 16:00:00 20.4 21 Oeste 37 Noroeste 0 1006.7 -- 41
2021-01-31 15:00:00 21.7 28 Oeste 46 Noroeste 0 1007.2 -- 39
2021-01-31 14:00:00 21.4 33 Noroeste 61 Noroeste 0 1007.8 -- 36
2021-01-31 13:00:00 18.7 27 Noroeste 50 Noroeste 0 1009.1 -- 40
2021-01-31 12:00:00 18.5 48 Oeste 67 Oeste 0 1009.6 -- 36
2021-01-31 11:00:00 16.4 33 Noroeste 61 Noroeste 0 1009.9 -- 39
2021-01-31 10:00:00 15.7 27 Oeste 39 Noroeste 0 1009.7 -- 40
2021-01-31 09:00:00 13.9 16 Oeste 32 Oeste 0 1009.6 -- 47
2021-01-31 08:00:00 13.3 19 Oeste 30 Oeste 0 1008.8 -- 48
2021-01-31 07:00:00 13.9 18 Oeste 58 Noroeste 0 1008.6 -- 47
2021-01-31 06:00:00 14 27 Oeste 46 Oeste 0 1008.1 -- 46
2021-01-31 05:00:00 14.3 27 Oeste 45 Oeste 0 1008.2 -- 44
2021-01-31 04:00:00 14.8 27 Oeste 45 Oeste 0 1008 -- 41
2021-01-31 03:00:00 15 22 Oeste 46 Oeste 0 1008.5 -- 40
2021-01-31 02:00:00 15.1 23 Oeste 48 Oeste 0 1008.2 -- 40
2021-01-31 01:00:00 15.5 33 Oeste 52 Noroeste 0 1007.9 -- 40
2021-01-31 00:00:00 15.8 32 Oeste 46 Oeste 0 1007.3 -- 39